sensor_id;sensor_type;location;lat;lon;timestamp;P1;durP1;ratioP1;P2;durP2;ratioP2
78916;SDS011;68315;48.608;11.436;2023-08-07T00:02:23;2.95;;;1.38;;
78916;SDS011;68315;48.608;11.436;2023-08-07T00:04:48;2.00;;;1.20;;
78916;SDS011;68315;48.608;11.436;2023-08-07T00:07:13;3.38;;;1.58;;
78916;SDS011;68315;48.608;11.436;2023-08-07T00:09:38;2.55;;;1.30;;
78916;SDS011;68315;48.608;11.436;2023-08-07T00:12:04;3.08;;;1.30;;
78916;SDS011;68315;48.608;11.436;2023-08-07T00:14:29;1.92;;;1.50;;
78916;SDS011;68315;48.608;11.436;2023-08-07T00:16:54;1.90;;;1.40;;
78916;SDS011;68315;48.608;11.436;2023-08-07T00:19:19;3.15;;;1.40;;
78916;SDS011;68315;48.608;11.436;2023-08-07T00:21:45;2.03;;;1.38;;
78916;SDS011;68315;48.608;11.436;2023-08-07T00:24:10;3.78;;;1.52;;
78916;SDS011;68315;48.608;11.436;2023-08-07T00:26:35;3.85;;;1.23;;
78916;SDS011;68315;48.608;11.436;2023-08-07T00:29:01;1.60;;;1.40;;
78916;SDS011;68315;48.608;11.436;2023-08-07T00:31:26;1.60;;;1.20;;
78916;SDS011;68315;48.608;11.436;2023-08-07T00:33:55;1.65;;;1.33;;
78916;SDS011;68315;48.608;11.436;2023-08-07T00:36:21;1.48;;;1.38;;
78916;SDS011;68315;48.608;11.436;2023-08-07T00:38:46;3.03;;;1.50;;
78916;SDS011;68315;48.608;11.436;2023-08-07T00:41:11;2.20;;;1.20;;
78916;SDS011;68315;48.608;11.436;2023-08-07T00:43:36;3.13;;;1.40;;
78916;SDS011;68315;48.608;11.436;2023-08-07T00:46:02;1.85;;;1.58;;
78916;SDS011;68315;48.608;11.436;2023-08-07T00:48:27;2.33;;;1.27;;
78916;SDS011;68315;48.608;11.436;2023-08-07T00:50:54;2.10;;;1.50;;
78916;SDS011;68315;48.608;11.436;2023-08-07T00:53:20;2.83;;;1.20;;
78916;SDS011;68315;48.608;11.436;2023-08-07T00:55:45;1.80;;;1.40;;
78916;SDS011;68315;48.608;11.436;2023-08-07T00:58:11;2.50;;;1.40;;
78916;SDS011;68315;48.608;11.436;2023-08-07T01:00:37;1.83;;;1.35;;
78916;SDS011;68315;48.608;11.436;2023-08-07T01:03:05;1.95;;;1.55;;
78916;SDS011;68315;48.608;11.436;2023-08-07T01:05:31;3.08;;;1.60;;
78916;SDS011;68315;48.608;11.436;2023-08-07T01:07:56;3.38;;;1.40;;
78916;SDS011;68315;48.608;11.436;2023-08-07T01:10:25;2.05;;;1.40;;
78916;SDS011;68315;48.608;11.436;2023-08-07T01:13:00;2.42;;;1.55;;
78916;SDS011;68315;48.608;11.436;2023-08-07T01:15:31;4.50;;;1.75;;
78916;SDS011;68315;48.608;11.436;2023-08-07T01:17:58;4.30;;;1.60;;
78916;SDS011;68315;48.608;11.436;2023-08-07T01:20:24;2.63;;;1.23;;
78916;SDS011;68315;48.608;11.436;2023-08-07T01:22:50;1.55;;;1.20;;
78916;SDS011;68315;48.608;11.436;2023-08-07T01:25:18;1.95;;;1.38;;
78916;SDS011;68315;48.608;11.436;2023-08-07T01:27:49;1.48;;;1.38;;
78916;SDS011;68315;48.608;11.436;2023-08-07T01:30:22;2.22;;;1.45;;
78916;SDS011;68315;48.608;11.436;2023-08-07T01:33:04;2.80;;;1.60;;
78916;SDS011;68315;48.608;11.436;2023-08-07T01:35:39;2.08;;;1.40;;
78916;SDS011;68315;48.608;11.436;2023-08-07T01:38:07;2.70;;;1.65;;
78916;SDS011;68315;48.608;11.436;2023-08-07T01:40:33;4.72;;;1.63;;
78916;SDS011;68315;48.608;11.436;2023-08-07T01:43:01;2.92;;;1.63;;
78916;SDS011;68315;48.608;11.436;2023-08-07T01:45:27;2.63;;;1.27;;
78916;SDS011;68315;48.608;11.436;2023-08-07T01:47:53;3.45;;;1.70;;
78916;SDS011;68315;48.608;11.436;2023-08-07T01:50:19;2.45;;;1.70;;
78916;SDS011;68315;48.608;11.436;2023-08-07T01:52:45;1.60;;;1.40;;
78916;SDS011;68315;48.608;11.436;2023-08-07T01:55:14;3.70;;;1.48;;
78916;SDS011;68315;48.608;11.436;2023-08-07T01:57:40;2.63;;;1.52;;
78916;SDS011;68315;48.608;11.436;2023-08-07T02:00:06;2.75;;;1.50;;
78916;SDS011;68315;48.608;11.436;2023-08-07T02:02:33;1.95;;;1.60;;
78916;SDS011;68315;48.608;11.436;2023-08-07T02:04:58;2.22;;;1.70;;
78916;SDS011;68315;48.608;11.436;2023-08-07T02:07:23;1.58;;;1.48;;
78916;SDS011;68315;48.608;11.436;2023-08-07T02:09:49;3.20;;;1.40;;
78916;SDS011;68315;48.608;11.436;2023-08-07T02:12:15;2.53;;;1.60;;
78916;SDS011;68315;48.608;11.436;2023-08-07T02:14:40;2.50;;;1.63;;
78916;SDS011;68315;48.608;11.436;2023-08-07T02:17:06;3.08;;;1.90;;
78916;SDS011;68315;48.608;11.436;2023-08-07T02:19:31;2.83;;;1.60;;
78916;SDS011;68315;48.608;11.436;2023-08-07T02:21:57;2.60;;;1.75;;
78916;SDS011;68315;48.608;11.436;2023-08-07T02:24:22;1.92;;;1.50;;
78916;SDS011;68315;48.608;11.436;2023-08-07T02:26:47;3.40;;;1.63;;
78916;SDS011;68315;48.608;11.436;2023-08-07T02:29:12;3.05;;;1.48;;
78916;SDS011;68315;48.608;11.436;2023-08-07T02:31:37;2.88;;;1.50;;
78916;SDS011;68315;48.608;11.436;2023-08-07T02:34:03;2.65;;;1.70;;
78916;SDS011;68315;48.608;11.436;2023-08-07T02:36:28;4.60;;;1.88;;
78916;SDS011;68315;48.608;11.436;2023-08-07T02:38:53;2.55;;;1.48;;
78916;SDS011;68315;48.608;11.436;2023-08-07T02:41:19;5.95;;;2.00;;
78916;SDS011;68315;48.608;11.436;2023-08-07T02:43:44;2.38;;;1.50;;
78916;SDS011;68315;48.608;11.436;2023-08-07T02:46:09;3.05;;;1.95;;
78916;SDS011;68315;48.608;11.436;2023-08-07T02:48:34;3.88;;;2.03;;
78916;SDS011;68315;48.608;11.436;2023-08-07T02:51:00;4.43;;;1.88;;
78916;SDS011;68315;48.608;11.436;2023-08-07T02:53:25;2.47;;;1.70;;
78916;SDS011;68315;48.608;11.436;2023-08-07T02:55:50;2.17;;;1.60;;
78916;SDS011;68315;48.608;11.436;2023-08-07T02:58:15;2.25;;;1.42;;
78916;SDS011;68315;48.608;11.436;2023-08-07T03:00:41;3.00;;;2.13;;
78916;SDS011;68315;48.608;11.436;2023-08-07T03:03:06;3.25;;;1.83;;
78916;SDS011;68315;48.608;11.436;2023-08-07T03:05:31;3.20;;;1.70;;
78916;SDS011;68315;48.608;11.436;2023-08-07T03:07:56;3.10;;;2.00;;
78916;SDS011;68315;48.608;11.436;2023-08-07T03:10:22;2.70;;;1.65;;
78916;SDS011;68315;48.608;11.436;2023-08-07T03:12:47;4.80;;;1.92;;
78916;SDS011;68315;48.608;11.436;2023-08-07T03:15:12;2.47;;;2.10;;
78916;SDS011;68315;48.608;11.436;2023-08-07T03:17:38;2.67;;;1.70;;
78916;SDS011;68315;48.608;11.436;2023-08-07T03:20:03;3.78;;;2.25;;
78916;SDS011;68315;48.608;11.436;2023-08-07T03:22:29;4.20;;;1.88;;
78916;SDS011;68315;48.608;11.436;2023-08-07T03:24:54;5.05;;;2.30;;
78916;SDS011;68315;48.608;11.436;2023-08-07T03:27:20;4.90;;;2.35;;
78916;SDS011;68315;48.608;11.436;2023-08-07T03:29:46;3.95;;;2.20;;
78916;SDS011;68315;48.608;11.436;2023-08-07T03:32:11;2.92;;;1.90;;
78916;SDS011;68315;48.608;11.436;2023-08-07T03:34:36;3.92;;;2.20;;
78916;SDS011;68315;48.608;11.436;2023-08-07T03:37:01;2.75;;;1.90;;
78916;SDS011;68315;48.608;11.436;2023-08-07T03:39:27;3.22;;;2.20;;
78916;SDS011;68315;48.608;11.436;2023-08-07T03:41:52;5.93;;;2.13;;
78916;SDS011;68315;48.608;11.436;2023-08-07T03:44:17;2.65;;;1.55;;
78916;SDS011;68315;48.608;11.436;2023-08-07T03:46:43;3.75;;;2.28;;
78916;SDS011;68315;48.608;11.436;2023-08-07T03:49:08;3.75;;;1.83;;
78916;SDS011;68315;48.608;11.436;2023-08-07T03:51:33;3.88;;;1.95;;
78916;SDS011;68315;48.608;11.436;2023-08-07T03:53:59;1.95;;;1.63;;
78916;SDS011;68315;48.608;11.436;2023-08-07T03:56:24;4.72;;;1.80;;
78916;SDS011;68315;48.608;11.436;2023-08-07T03:58:49;4.70;;;2.33;;
78916;SDS011;68315;48.608;11.436;2023-08-07T04:01:15;2.60;;;2.20;;
78916;SDS011;68315;48.608;11.436;2023-08-07T04:03:41;3.67;;;1.80;;
78916;SDS011;68315;48.608;11.436;2023-08-07T04:06:06;2.90;;;2.00;;
78916;SDS011;68315;48.608;11.436;2023-08-07T04:08:40;2.72;;;1.90;;
78916;SDS011;68315;48.608;11.436;2023-08-07T04:11:05;4.43;;;2.15;;
78916;SDS011;68315;48.608;11.436;2023-08-07T04:13:32;2.70;;;1.77;;
78916;SDS011;68315;48.608;11.436;2023-08-07T04:15:57;3.97;;;2.20;;
78916;SDS011;68315;48.608;11.436;2023-08-07T04:18:23;3.85;;;2.13;;
78916;SDS011;68315;48.608;11.436;2023-08-07T04:20:49;3.92;;;2.22;;
78916;SDS011;68315;48.608;11.436;2023-08-07T04:23:15;4.72;;;2.38;;
78916;SDS011;68315;48.608;11.436;2023-08-07T04:25:40;2.20;;;1.98;;
78916;SDS011;68315;48.608;11.436;2023-08-07T04:28:06;2.90;;;1.90;;
78916;SDS011;68315;48.608;11.436;2023-08-07T04:30:31;3.63;;;2.10;;
78916;SDS011;68315;48.608;11.436;2023-08-07T04:32:56;4.40;;;2.17;;
78916;SDS011;68315;48.608;11.436;2023-08-07T04:35:22;5.07;;;2.20;;
78916;SDS011;68315;48.608;11.436;2023-08-07T04:37:47;3.22;;;2.00;;
78916;SDS011;68315;48.608;11.436;2023-08-07T04:40:12;2.80;;;1.80;;
78916;SDS011;68315;48.608;11.436;2023-08-07T04:42:37;3.45;;;2.00;;
78916;SDS011;68315;48.608;11.436;2023-08-07T04:45:03;3.13;;;2.15;;
78916;SDS011;68315;48.608;11.436;2023-08-07T04:47:28;3.78;;;1.98;;
78916;SDS011;68315;48.608;11.436;2023-08-07T04:49:54;3.40;;;2.20;;
78916;SDS011;68315;48.608;11.436;2023-08-07T04:52:19;2.03;;;1.58;;
78916;SDS011;68315;48.608;11.436;2023-08-07T04:54:44;4.95;;;2.22;;
78916;SDS011;68315;48.608;11.436;2023-08-07T04:57:09;4.30;;;2.10;;
78916;SDS011;68315;48.608;11.436;2023-08-07T04:59:35;4.43;;;2.40;;
78916;SDS011;68315;48.608;11.436;2023-08-07T05:02:00;2.88;;;1.88;;
78916;SDS011;68315;48.608;11.436;2023-08-07T05:04:26;3.58;;;2.13;;
78916;SDS011;68315;48.608;11.436;2023-08-07T05:06:51;4.82;;;1.95;;
78916;SDS011;68315;48.608;11.436;2023-08-07T05:09:16;4.70;;;2.40;;
78916;SDS011;68315;48.608;11.436;2023-08-07T05:11:42;2.95;;;2.15;;
78916;SDS011;68315;48.608;11.436;2023-08-07T05:14:07;4.18;;;1.83;;
78916;SDS011;68315;48.608;11.436;2023-08-07T05:16:32;3.35;;;2.10;;
78916;SDS011;68315;48.608;11.436;2023-08-07T05:18:57;3.25;;;1.95;;
78916;SDS011;68315;48.608;11.436;2023-08-07T05:21:23;3.13;;;2.00;;
78916;SDS011;68315;48.608;11.436;2023-08-07T05:23:48;2.50;;;2.00;;
78916;SDS011;68315;48.608;11.436;2023-08-07T05:26:18;4.13;;;2.25;;
78916;SDS011;68315;48.608;11.436;2023-08-07T05:28:43;3.17;;;2.10;;
78916;SDS011;68315;48.608;11.436;2023-08-07T05:31:08;4.68;;;2.30;;
78916;SDS011;68315;48.608;11.436;2023-08-07T05:33:33;4.65;;;2.10;;
78916;SDS011;68315;48.608;11.436;2023-08-07T05:35:58;4.47;;;2.75;;
78916;SDS011;68315;48.608;11.436;2023-08-07T05:38:24;5.63;;;2.30;;
78916;SDS011;68315;48.608;11.436;2023-08-07T05:40:49;5.18;;;2.63;;
78916;SDS011;68315;48.608;11.436;2023-08-07T05:43:14;4.30;;;2.20;;
78916;SDS011;68315;48.608;11.436;2023-08-07T05:45:41;4.72;;;2.17;;
78916;SDS011;68315;48.608;11.436;2023-08-07T05:48:07;5.28;;;2.70;;
78916;SDS011;68315;48.608;11.436;2023-08-07T05:50:34;5.38;;;2.67;;
78916;SDS011;68315;48.608;11.436;2023-08-07T05:52:59;5.88;;;2.53;;
78916;SDS011;68315;48.608;11.436;2023-08-07T05:55:24;4.82;;;2.25;;
78916;SDS011;68315;48.608;11.436;2023-08-07T05:57:50;3.65;;;2.75;;
78916;SDS011;68315;48.608;11.436;2023-08-07T06:00:15;5.93;;;2.65;;
78916;SDS011;68315;48.608;11.436;2023-08-07T06:02:43;3.75;;;2.17;;
78916;SDS011;68315;48.608;11.436;2023-08-07T06:05:09;6.22;;;2.20;;
78916;SDS011;68315;48.608;11.436;2023-08-07T06:07:36;3.55;;;2.10;;
78916;SDS011;68315;48.608;11.436;2023-08-07T06:10:02;5.82;;;2.40;;
78916;SDS011;68315;48.608;11.436;2023-08-07T06:12:27;4.43;;;2.17;;
78916;SDS011;68315;48.608;11.436;2023-08-07T06:14:52;3.33;;;2.13;;
78916;SDS011;68315;48.608;11.436;2023-08-07T06:17:18;7.20;;;2.92;;
78916;SDS011;68315;48.608;11.436;2023-08-07T06:19:43;3.83;;;2.30;;
78916;SDS011;68315;48.608;11.436;2023-08-07T06:22:08;4.82;;;2.10;;
78916;SDS011;68315;48.608;11.436;2023-08-07T06:24:33;2.75;;;1.90;;
78916;SDS011;68315;48.608;11.436;2023-08-07T06:26:58;4.45;;;1.92;;
78916;SDS011;68315;48.608;11.436;2023-08-07T06:29:24;4.70;;;2.38;;
78916;SDS011;68315;48.608;11.436;2023-08-07T06:31:49;6.00;;;2.25;;
78916;SDS011;68315;48.608;11.436;2023-08-07T06:34:15;5.03;;;2.30;;
78916;SDS011;68315;48.608;11.436;2023-08-07T06:36:40;6.38;;;2.30;;
78916;SDS011;68315;48.608;11.436;2023-08-07T06:39:05;5.05;;;1.98;;
78916;SDS011;68315;48.608;11.436;2023-08-07T06:41:30;4.15;;;2.10;;
78916;SDS011;68315;48.608;11.436;2023-08-07T06:43:56;7.05;;;2.28;;
78916;SDS011;68315;48.608;11.436;2023-08-07T06:46:21;5.95;;;2.10;;
78916;SDS011;68315;48.608;11.436;2023-08-07T06:48:49;5.55;;;2.00;;
78916;SDS011;68315;48.608;11.436;2023-08-07T06:51:14;5.28;;;1.70;;
78916;SDS011;68315;48.608;11.436;2023-08-07T06:53:41;2.47;;;1.85;;
78916;SDS011;68315;48.608;11.436;2023-08-07T06:56:07;6.97;;;1.80;;
78916;SDS011;68315;48.608;11.436;2023-08-07T06:58:32;4.40;;;1.70;;
78916;SDS011;68315;48.608;11.436;2023-08-07T07:00:57;2.75;;;1.77;;
78916;SDS011;68315;48.608;11.436;2023-08-07T07:03:23;3.50;;;1.65;;
78916;SDS011;68315;48.608;11.436;2023-08-07T07:05:48;6.35;;;2.30;;
78916;SDS011;68315;48.608;11.436;2023-08-07T07:08:14;4.47;;;1.83;;
78916;SDS011;68315;48.608;11.436;2023-08-07T07:10:40;4.80;;;1.95;;
78916;SDS011;68315;48.608;11.436;2023-08-07T07:13:05;6.53;;;2.17;;
78916;SDS011;68315;48.608;11.436;2023-08-07T07:15:31;3.67;;;1.92;;
78916;SDS011;68315;48.608;11.436;2023-08-07T07:17:56;5.60;;;2.05;;
78916;SDS011;68315;48.608;11.436;2023-08-07T07:20:21;4.20;;;2.28;;
78916;SDS011;68315;48.608;11.436;2023-08-07T07:22:47;4.68;;;1.90;;
78916;SDS011;68315;48.608;11.436;2023-08-07T07:25:12;5.20;;;2.17;;
78916;SDS011;68315;48.608;11.436;2023-08-07T07:27:38;2.47;;;1.70;;
78916;SDS011;68315;48.608;11.436;2023-08-07T07:30:04;7.18;;;1.90;;
78916;SDS011;68315;48.608;11.436;2023-08-07T07:32:30;3.65;;;1.85;;
78916;SDS011;68315;48.608;11.436;2023-08-07T07:34:55;3.30;;;2.20;;
78916;SDS011;68315;48.608;11.436;2023-08-07T07:37:20;2.60;;;1.70;;
78916;SDS011;68315;48.608;11.436;2023-08-07T07:39:46;5.88;;;1.90;;
78916;SDS011;68315;48.608;11.436;2023-08-07T07:42:11;3.65;;;1.88;;
78916;SDS011;68315;48.608;11.436;2023-08-07T07:44:36;4.13;;;1.83;;
78916;SDS011;68315;48.608;11.436;2023-08-07T07:47:03;3.28;;;2.22;;
78916;SDS011;68315;48.608;11.436;2023-08-07T07:49:30;3.70;;;1.90;;
78916;SDS011;68315;48.608;11.436;2023-08-07T07:51:55;3.63;;;2.13;;
78916;SDS011;68315;48.608;11.436;2023-08-07T07:54:20;4.47;;;1.85;;
78916;SDS011;68315;48.608;11.436;2023-08-07T07:56:45;3.13;;;1.80;;
78916;SDS011;68315;48.608;11.436;2023-08-07T07:59:11;4.57;;;1.80;;
78916;SDS011;68315;48.608;11.436;2023-08-07T08:01:37;3.83;;;2.00;;
78916;SDS011;68315;48.608;11.436;2023-08-07T08:04:02;5.60;;;2.13;;
78916;SDS011;68315;48.608;11.436;2023-08-07T08:06:28;3.40;;;1.90;;
78916;SDS011;68315;48.608;11.436;2023-08-07T08:08:53;4.55;;;1.65;;
78916;SDS011;68315;48.608;11.436;2023-08-07T08:11:18;3.58;;;1.60;;
78916;SDS011;68315;48.608;11.436;2023-08-07T08:13:43;6.40;;;1.92;;
78916;SDS011;68315;48.608;11.436;2023-08-07T08:16:09;4.47;;;1.83;;
78916;SDS011;68315;48.608;11.436;2023-08-07T08:18:34;5.28;;;1.90;;
78916;SDS011;68315;48.608;11.436;2023-08-07T08:21:00;3.15;;;1.77;;
78916;SDS011;68315;48.608;11.436;2023-08-07T08:23:25;3.00;;;1.80;;
78916;SDS011;68315;48.608;11.436;2023-08-07T08:25:50;4.78;;;1.80;;
78916;SDS011;68315;48.608;11.436;2023-08-07T08:28:16;3.75;;;1.80;;
78916;SDS011;68315;48.608;11.436;2023-08-07T08:30:42;5.28;;;1.90;;
78916;SDS011;68315;48.608;11.436;2023-08-07T08:33:07;4.30;;;1.80;;
78916;SDS011;68315;48.608;11.436;2023-08-07T08:35:36;4.25;;;1.70;;
78916;SDS011;68315;48.608;11.436;2023-08-07T08:38:01;2.80;;;1.77;;
78916;SDS011;68315;48.608;11.436;2023-08-07T08:40:28;3.25;;;1.58;;
78916;SDS011;68315;48.608;11.436;2023-08-07T08:42:54;4.30;;;1.75;;
78916;SDS011;68315;48.608;11.436;2023-08-07T08:48:12;3.15;;;1.52;;
78916;SDS011;68315;48.608;11.436;2023-08-07T08:50:46;3.10;;;1.73;;
78916;SDS011;68315;48.608;11.436;2023-08-07T08:53:15;3.72;;;1.50;;
78916;SDS011;68315;48.608;11.436;2023-08-07T08:55:43;2.22;;;1.50;;
78916;SDS011;68315;48.608;11.436;2023-08-07T08:58:13;5.20;;;1.75;;
78916;SDS011;68315;48.608;11.436;2023-08-07T09:00:40;4.60;;;2.10;;
78916;SDS011;68315;48.608;11.436;2023-08-07T09:03:06;3.42;;;1.70;;
78916;SDS011;68315;48.608;11.436;2023-08-07T09:05:31;2.63;;;1.58;;
78916;SDS011;68315;48.608;11.436;2023-08-07T09:07:58;2.55;;;1.55;;
78916;SDS011;68315;48.608;11.436;2023-08-07T09:10:24;2.60;;;1.60;;
78916;SDS011;68315;48.608;11.436;2023-08-07T09:12:53;3.08;;;1.60;;
78916;SDS011;68315;48.608;11.436;2023-08-07T09:15:21;4.05;;;1.67;;
78916;SDS011;68315;48.608;11.436;2023-08-07T09:17:48;3.63;;;1.90;;
78916;SDS011;68315;48.608;11.436;2023-08-07T09:20:14;4.38;;;1.58;;
78916;SDS011;68315;48.608;11.436;2023-08-07T09:22:40;2.10;;;1.48;;
78916;SDS011;68315;48.608;11.436;2023-08-07T09:25:07;3.08;;;1.70;;
78916;SDS011;68315;48.608;11.436;2023-08-07T09:27:34;3.97;;;1.60;;
78916;SDS011;68315;48.608;11.436;2023-08-07T09:30:01;4.07;;;1.67;;
78916;SDS011;68315;48.608;11.436;2023-08-07T09:32:27;3.75;;;1.60;;
78916;SDS011;68315;48.608;11.436;2023-08-07T09:34:53;3.53;;;1.83;;
78916;SDS011;68315;48.608;11.436;2023-08-07T09:37:18;3.20;;;1.75;;
78916;SDS011;68315;48.608;11.436;2023-08-07T09:39:43;1.90;;;1.50;;
78916;SDS011;68315;48.608;11.436;2023-08-07T09:42:14;2.90;;;1.90;;
78916;SDS011;68315;48.608;11.436;2023-08-07T09:44:41;3.17;;;1.67;;
78916;SDS011;68315;48.608;11.436;2023-08-07T09:47:13;3.00;;;1.65;;
78916;SDS011;68315;48.608;11.436;2023-08-07T09:49:40;5.72;;;1.80;;
78916;SDS011;68315;48.608;11.436;2023-08-07T09:52:06;2.33;;;1.80;;
78916;SDS011;68315;48.608;11.436;2023-08-07T09:54:32;2.35;;;1.73;;
78916;SDS011;68315;48.608;11.436;2023-08-07T09:56:59;2.65;;;1.50;;
78916;SDS011;68315;48.608;11.436;2023-08-07T09:59:26;2.72;;;1.67;;
78916;SDS011;68315;48.608;11.436;2023-08-07T10:01:52;2.63;;;1.63;;
78916;SDS011;68315;48.608;11.436;2023-08-07T10:04:18;1.40;;;1.20;;
78916;SDS011;68315;48.608;11.436;2023-08-07T10:06:43;3.80;;;1.40;;
78916;SDS011;68315;48.608;11.436;2023-08-07T10:09:09;3.35;;;1.40;;
78916;SDS011;68315;48.608;11.436;2023-08-07T10:11:34;3.38;;;1.58;;
78916;SDS011;68315;48.608;11.436;2023-08-07T10:13:59;3.30;;;1.75;;
78916;SDS011;68315;48.608;11.436;2023-08-07T10:16:25;2.88;;;1.23;;
78916;SDS011;68315;48.608;11.436;2023-08-07T10:18:52;4.45;;;1.30;;
78916;SDS011;68315;48.608;11.436;2023-08-07T10:21:17;2.10;;;1.33;;
78916;SDS011;68315;48.608;11.436;2023-08-07T10:23:44;2.17;;;1.25;;
78916;SDS011;68315;48.608;11.436;2023-08-07T10:26:09;3.05;;;1.50;;
78916;SDS011;68315;48.608;11.436;2023-08-07T10:28:36;2.65;;;1.33;;
78916;SDS011;68315;48.608;11.436;2023-08-07T10:31:04;2.03;;;1.58;;
78916;SDS011;68315;48.608;11.436;2023-08-07T10:33:31;2.10;;;1.65;;
78916;SDS011;68315;48.608;11.436;2023-08-07T10:35:57;4.35;;;1.55;;
78916;SDS011;68315;48.608;11.436;2023-08-07T10:38:22;1.83;;;1.42;;
78916;SDS011;68315;48.608;11.436;2023-08-07T10:40:58;3.33;;;1.30;;
78916;SDS011;68315;48.608;11.436;2023-08-07T10:43:39;1.60;;;1.15;;
78916;SDS011;68315;48.608;11.436;2023-08-07T10:46:11;4.47;;;1.40;;
78916;SDS011;68315;48.608;11.436;2023-08-07T10:48:38;2.75;;;1.58;;
78916;SDS011;68315;48.608;11.436;2023-08-07T10:51:04;1.77;;;1.15;;
78916;SDS011;68315;48.608;11.436;2023-08-07T10:55:56;1.45;;;1.25;;
78916;SDS011;68315;48.608;11.436;2023-08-07T11:00:49;5.18;;;1.55;;
78916;SDS011;68315;48.608;11.436;2023-08-07T11:03:27;5.00;;;1.40;;
78916;SDS011;68315;48.608;11.436;2023-08-07T11:05:53;3.20;;;1.35;;
78916;SDS011;68315;48.608;11.436;2023-08-07T11:08:22;1.42;;;1.33;;
78916;SDS011;68315;48.608;11.436;2023-08-07T11:10:49;4.80;;;1.40;;
78916;SDS011;68315;48.608;11.436;2023-08-07T11:13:16;3.33;;;1.60;;
78916;SDS011;68315;48.608;11.436;2023-08-07T11:15:41;2.17;;;1.40;;
78916;SDS011;68315;48.608;11.436;2023-08-07T11:18:06;3.28;;;1.52;;
78916;SDS011;68315;48.608;11.436;2023-08-07T11:20:32;2.63;;;1.50;;
78916;SDS011;68315;48.608;11.436;2023-08-07T11:23:00;2.40;;;1.45;;
78916;SDS011;68315;48.608;11.436;2023-08-07T11:25:26;2.05;;;1.30;;
78916;SDS011;68315;48.608;11.436;2023-08-07T11:27:51;3.58;;;1.38;;
78916;SDS011;68315;48.608;11.436;2023-08-07T11:30:16;1.90;;;1.20;;
78916;SDS011;68315;48.608;11.436;2023-08-07T11:32:41;1.77;;;1.10;;
78916;SDS011;68315;48.608;11.436;2023-08-07T11:35:07;3.88;;;1.25;;
78916;SDS011;68315;48.608;11.436;2023-08-07T11:37:33;1.90;;;1.20;;
78916;SDS011;68315;48.608;11.436;2023-08-07T11:40:01;2.03;;;1.20;;
78916;SDS011;68315;48.608;11.436;2023-08-07T11:42:28;2.03;;;1.20;;
78916;SDS011;68315;48.608;11.436;2023-08-07T11:44:53;2.67;;;1.42;;
78916;SDS011;68315;48.608;11.436;2023-08-07T11:47:19;1.67;;;1.20;;
78916;SDS011;68315;48.608;11.436;2023-08-07T11:49:44;2.83;;;1.25;;
78916;SDS011;68315;48.608;11.436;2023-08-07T11:52:10;1.35;;;1.02;;
78916;SDS011;68315;48.608;11.436;2023-08-07T11:54:35;1.70;;;1.30;;
78916;SDS011;68315;48.608;11.436;2023-08-07T11:57:01;2.40;;;1.27;;
78916;SDS011;68315;48.608;11.436;2023-08-07T11:59:26;1.85;;;1.17;;
78916;SDS011;68315;48.608;11.436;2023-08-07T12:01:52;1.45;;;1.20;;
78916;SDS011;68315;48.608;11.436;2023-08-07T12:04:17;2.93;;;1.27;;
78916;SDS011;68315;48.608;11.436;2023-08-07T12:06:55;5.22;;;1.30;;
78916;SDS011;68315;48.608;11.436;2023-08-07T12:09:21;6.07;;;1.70;;
78916;SDS011;68315;48.608;11.436;2023-08-07T12:11:46;3.33;;;1.33;;
78916;SDS011;68315;48.608;11.436;2023-08-07T12:14:16;1.53;;;1.30;;
78916;SDS011;68315;48.608;11.436;2023-08-07T12:16:43;2.97;;;1.52;;
78916;SDS011;68315;48.608;11.436;2023-08-07T12:19:10;3.88;;;1.30;;
78916;SDS011;68315;48.608;11.436;2023-08-07T12:21:35;2.15;;;1.30;;
78916;SDS011;68315;48.608;11.436;2023-08-07T12:24:01;1.25;;;1.02;;
78916;SDS011;68315;48.608;11.436;2023-08-07T12:26:26;2.72;;;1.23;;
78916;SDS011;68315;48.608;11.436;2023-08-07T12:28:52;3.17;;;1.40;;
78916;SDS011;68315;48.608;11.436;2023-08-07T12:31:18;2.13;;;1.30;;
78916;SDS011;68315;48.608;11.436;2023-08-07T12:33:43;2.58;;;1.38;;
78916;SDS011;68315;48.608;11.436;2023-08-07T12:36:09;2.27;;;1.37;;
78916;SDS011;68315;48.608;11.436;2023-08-07T12:38:35;1.40;;;1.30;;
78916;SDS011;68315;48.608;11.436;2023-08-07T12:41:00;3.40;;;1.50;;
78916;SDS011;68315;48.608;11.436;2023-08-07T12:43:28;3.35;;;1.40;;
78916;SDS011;68315;48.608;11.436;2023-08-07T12:45:53;2.75;;;1.30;;
78916;SDS011;68315;48.608;11.436;2023-08-07T12:48:18;3.60;;;1.70;;
78916;SDS011;68315;48.608;11.436;2023-08-07T12:50:44;1.90;;;1.30;;
78916;SDS011;68315;48.608;11.436;2023-08-07T12:53:09;3.00;;;1.70;;
78916;SDS011;68315;48.608;11.436;2023-08-07T12:55:35;2.60;;;1.42;;
78916;SDS011;68315;48.608;11.436;2023-08-07T12:58:01;1.88;;;1.13;;
78916;SDS011;68315;48.608;11.436;2023-08-07T13:00:26;2.77;;;1.40;;
78916;SDS011;68315;48.608;11.436;2023-08-07T13:02:52;1.83;;;1.30;;
78916;SDS011;68315;48.608;11.436;2023-08-07T13:05:18;2.03;;;1.33;;
78916;SDS011;68315;48.608;11.436;2023-08-07T13:07:45;1.85;;;1.30;;
78916;SDS011;68315;48.608;11.436;2023-08-07T13:10:12;2.63;;;1.40;;
78916;SDS011;68315;48.608;11.436;2023-08-07T13:12:39;2.33;;;1.10;;
78916;SDS011;68315;48.608;11.436;2023-08-07T13:15:06;2.13;;;1.30;;
78916;SDS011;68315;48.608;11.436;2023-08-07T13:17:34;2.97;;;1.45;;
78916;SDS011;68315;48.608;11.436;2023-08-07T13:20:00;1.98;;;1.40;;
78916;SDS011;68315;48.608;11.436;2023-08-07T13:22:26;1.48;;;0.98;;
78916;SDS011;68315;48.608;11.436;2023-08-07T13:24:52;4.70;;;1.60;;
78916;SDS011;68315;48.608;11.436;2023-08-07T13:27:17;4.00;;;1.30;;
78916;SDS011;68315;48.608;11.436;2023-08-07T13:29:43;2.97;;;1.70;;
78916;SDS011;68315;48.608;11.436;2023-08-07T13:32:09;3.08;;;1.50;;
78916;SDS011;68315;48.608;11.436;2023-08-07T13:34:37;3.20;;;1.50;;
78916;SDS011;68315;48.608;11.436;2023-08-07T13:37:04;1.60;;;1.20;;
78916;SDS011;68315;48.608;11.436;2023-08-07T13:39:29;2.05;;;1.40;;
78916;SDS011;68315;48.608;11.436;2023-08-07T13:41:55;2.05;;;1.20;;
78916;SDS011;68315;48.608;11.436;2023-08-07T13:44:20;1.33;;;1.13;;
78916;SDS011;68315;48.608;11.436;2023-08-07T13:46:47;2.40;;;1.45;;
78916;SDS011;68315;48.608;11.436;2023-08-07T13:49:12;2.42;;;1.50;;
78916;SDS011;68315;48.608;11.436;2023-08-07T13:51:38;3.22;;;1.50;;
78916;SDS011;68315;48.608;11.436;2023-08-07T13:54:03;3.10;;;1.37;;
78916;SDS011;68315;48.608;11.436;2023-08-07T13:56:28;1.93;;;1.40;;
78916;SDS011;68315;48.608;11.436;2023-08-07T13:58:53;4.93;;;1.67;;
78916;SDS011;68315;48.608;11.436;2023-08-07T14:01:20;2.65;;;1.50;;
78916;SDS011;68315;48.608;11.436;2023-08-07T14:03:45;2.90;;;1.70;;
78916;SDS011;68315;48.608;11.436;2023-08-07T14:06:10;2.03;;;1.33;;
78916;SDS011;68315;48.608;11.436;2023-08-07T14:08:47;4.05;;;1.50;;
78916;SDS011;68315;48.608;11.436;2023-08-07T14:11:12;1.85;;;1.40;;
78916;SDS011;68315;48.608;11.436;2023-08-07T14:13:39;4.38;;;1.38;;
78916;SDS011;68315;48.608;11.436;2023-08-07T14:16:05;2.63;;;1.60;;
78916;SDS011;68315;48.608;11.436;2023-08-07T14:18:30;1.80;;;1.30;;
78916;SDS011;68315;48.608;11.436;2023-08-07T14:20:55;3.65;;;1.50;;
78916;SDS011;68315;48.608;11.436;2023-08-07T14:23:20;1.70;;;1.33;;
78916;SDS011;68315;48.608;11.436;2023-08-07T14:25:46;3.22;;;1.45;;
78916;SDS011;68315;48.608;11.436;2023-08-07T14:28:13;1.55;;;1.13;;
78916;SDS011;68315;48.608;11.436;2023-08-07T14:30:38;1.67;;;1.20;;
78916;SDS011;68315;48.608;11.436;2023-08-07T14:33:04;1.97;;;1.30;;
78916;SDS011;68315;48.608;11.436;2023-08-07T14:35:29;1.97;;;1.20;;